KGLY

Clinton Regional Airport

Clinton, Missouri, USA
METAR KGLY 280055Z AUTO 00000KT 10SM CLR 29/24 A2988 RMK AO2
Observed Flight Rules
May-28 @ 00:55 UTC (13 minutes ago) Visual Flight Rules
Visibility Clouds
10 miles
  • Clear skies
Temperatures Readings
Current 29°C / 84°F
Dewpoint 24°C / 75°F
Humidity 74%
Altimeter 29.88" Hg
Pressure 1012 hPa
Elevation 251
METAR KGLY 280055Z AUTO 00000KT 10SM CLR 29/24 A2988 RMK AO2
Observed Flight Rules
May-28 @ 00:55 UTC
(13 minutes ago)
VFR
Clouds
  • Clear skies
Temperature Dewpoint
29°C / 84°F 24°C / 75°F
Humidity Altimeter Pressure
74% 29.88" Hg 1012 hPa